»·PEaware :: FSLCD KSNA-KSNA

FSLCD :: KSNA-KSNA

FLIGHT INFORMATION

Flight Status: Arrived
Operator: Unknown
More flights by this operator :: More flights under this callsign
Pilot: Gopalakrishna Pillai Sulekha S. (22834)
Aircraft: ROBIN DR-400
(DR40)
More flights by this aircraft type
Origin: KSNA John Wayne-Orange Co
United States
Destination: KSNA John Wayne-Orange Co
United States
More flights between these airports :: More routes between these airports
Route: +SLI
File this flight plan on PilotEdge
Remarks: I1 RATING
Altitude:
(Current/Filed)
3,000ft
Speed:
(Current/Filed)
100kts
Departed: 04-Feb-19 09:29 AM
Arrived: 04-Feb-19 10:02 AM
Distance/Time
Traveled:
0nm/0:32
Distance/Time
To Go:
Arrived

Flight Plot

Page will automatically refresh every two minutes.


Map Options




Map Legend


Flown Route
Filed Route
Departure Airport
Arrival Airport
Navaid (VOR, NDB)
Fix

Horizontal Profiles

Position Reports

Time Latitude Longitude Heading Altitude Ground
Speed
04-Feb-19 09:13 33.666705 -117.871853 316 52ft 0kts
04-Feb-19 09:14 33.666705 -117.871853 316 52ft 0kts
04-Feb-19 09:15 33.666705 -117.871853 316 52ft 0kts
04-Feb-19 09:16 33.666705 -117.871853 316 52ft 0kts
04-Feb-19 09:17 33.666705 -117.871853 316 52ft 0kts
04-Feb-19 09:18 33.666705 -117.871853 316 52ft 0kts
04-Feb-19 09:19 33.666705 -117.871853 316 52ft 0kts
04-Feb-19 09:20 33.666705 -117.871853 316 52ft 0kts
04-Feb-19 09:21 33.666766 -117.871926 314 52ft 3kts
04-Feb-19 09:23 33.669183 -117.870889 40 52ft 17kts
04-Feb-19 09:24 33.672170 -117.868127 30 49ft 12kts
04-Feb-19 09:25 33.674709 -117.866738 27 46ft 10kts
04-Feb-19 09:26 33.679181 -117.863904 27 39ft 17kts
04-Feb-19 09:27 33.679947 -117.863618 314 39ft 0kts
04-Feb-19 09:28 33.679980 -117.863665 305 39ft 2kts
04-Feb-19 09:29 33.675001 -117.867312 204 139ft 89kts
04-Feb-19 09:30 33.655642 -117.893354 231 984ft 104kts
04-Feb-19 09:31 33.637941 -117.920128 231 1883ft 102kts
04-Feb-19 09:32 33.621216 -117.947374 246 2780ft 102kts
04-Feb-19 09:33 33.634797 -117.962780 21 3045ft 93kts
04-Feb-19 09:34 33.658984 -117.951087 21 3045ft 94kts
04-Feb-19 09:35 33.683253 -117.939341 21 3045ft 94kts
04-Feb-19 09:36 33.707598 -117.927554 21 3045ft 94kts
04-Feb-19 09:37 33.731940 -117.915765 21 3046ft 95kts
04-Feb-19 09:38 33.757210 -117.903520 21 3045ft 99kts
04-Feb-19 09:39 33.781950 -117.891529 21 3047ft 97kts
04-Feb-19 09:40 33.807236 -117.879267 21 3043ft 94kts
04-Feb-19 09:40 33.826982 -117.869691 21 3045ft 90kts
04-Feb-19 09:42 33.846094 -117.849014 114 3043ft 90kts
04-Feb-19 09:43 33.827738 -117.828728 129 3045ft 90kts
04-Feb-19 09:43 33.814239 -117.809421 128 3045ft 90kts
04-Feb-19 09:44 33.796749 -117.787822 143 3045ft 90kts
04-Feb-19 09:46 33.781871 -117.796074 291 3043ft 65kts
04-Feb-19 09:47 33.789041 -117.817639 291 3050ft 76kts
04-Feb-19 09:47 33.800560 -117.834233 4 3042ft 83kts
04-Feb-19 09:48 33.822588 -117.824274 21 3048ft 90kts
04-Feb-19 09:50 33.850483 -117.811056 21 3045ft 93kts
04-Feb-19 09:50 33.862732 -117.795266 109 3044ft 85kts
04-Feb-19 09:51 33.853474 -117.767432 111 3044ft 89kts
04-Feb-19 09:52 33.835702 -117.762150 221 3044ft 85kts
04-Feb-19 09:53 33.819010 -117.780103 221 3044ft 77kts
04-Feb-19 09:54 33.801492 -117.793353 199 3045ft 73kts
04-Feb-19 09:55 33.782431 -117.801685 199 3045ft 72kts
04-Feb-19 09:56 33.763263 -117.813457 207 2646ft 94kts
04-Feb-19 09:57 33.738895 -117.828841 207 1164ft 94kts
04-Feb-19 09:58 33.719507 -117.840718 205 948ft 79kts
04-Feb-19 09:59 33.698353 -117.854063 207 626ft 86kts
04-Feb-19 10:00 33.679930 -117.866153 207 41ft 47kts
04-Feb-19 10:01 33.678003 -117.868152 298 45ft 0kts
04-Feb-19 10:02 33.678003 -117.868152 298 45ft 0kts
04-Feb-19 10:03 33.676680 -117.869740 207 48ft 16kts
04-Feb-19 10:04 33.675584 -117.871374 224 49ft 0kts

Navigation Log

Ident Type
Flight plan parsing failed, navigation log unavailable